sensor_id;sensor_type;location;lat;lon;timestamp;P1;durP1;ratioP1;P2;durP2;ratioP2
8574;SDS011;4325;42.520;27.448;2023-05-10T00:00:45;7.83;;;5.17;;
8574;SDS011;4325;42.520;27.448;2023-05-10T00:03:12;6.23;;;5.20;;
8574;SDS011;4325;42.520;27.448;2023-05-10T00:05:39;8.67;;;5.00;;
8574;SDS011;4325;42.520;27.448;2023-05-10T00:08:06;9.10;;;4.90;;
8574;SDS011;4325;42.520;27.448;2023-05-10T00:10:33;12.87;;;5.00;;
8574;SDS011;4325;42.520;27.448;2023-05-10T00:13:01;13.73;;;5.30;;
8574;SDS011;4325;42.520;27.448;2023-05-10T00:15:29;8.73;;;4.67;;
8574;SDS011;4325;42.520;27.448;2023-05-10T00:17:56;8.10;;;5.03;;
8574;SDS011;4325;42.520;27.448;2023-05-10T00:20:23;7.70;;;5.00;;
8574;SDS011;4325;42.520;27.448;2023-05-10T00:22:50;11.23;;;5.40;;
8574;SDS011;4325;42.520;27.448;2023-05-10T00:25:17;16.13;;;8.27;;
8574;SDS011;4325;42.520;27.448;2023-05-10T00:27:45;8.03;;;5.17;;
8574;SDS011;4325;42.520;27.448;2023-05-10T00:30:12;9.20;;;5.00;;
8574;SDS011;4325;42.520;27.448;2023-05-10T00:32:41;7.90;;;5.00;;
8574;SDS011;4325;42.520;27.448;2023-05-10T00:35:08;9.20;;;4.87;;
8574;SDS011;4325;42.520;27.448;2023-05-10T00:37:35;12.73;;;5.03;;
8574;SDS011;4325;42.520;27.448;2023-05-10T00:40:02;8.40;;;5.40;;
8574;SDS011;4325;42.520;27.448;2023-05-10T00:42:30;6.07;;;4.73;;
8574;SDS011;4325;42.520;27.448;2023-05-10T00:44:56;8.80;;;5.10;;
8574;SDS011;4325;42.520;27.448;2023-05-10T00:47:23;6.77;;;4.93;;
8574;SDS011;4325;42.520;27.448;2023-05-10T00:49:52;5.87;;;4.33;;
8574;SDS011;4325;42.520;27.448;2023-05-10T00:52:20;11.70;;;5.23;;
8574;SDS011;4325;42.520;27.448;2023-05-10T00:54:48;7.50;;;4.83;;
8574;SDS011;4325;42.520;27.448;2023-05-10T00:57:16;9.90;;;5.40;;
8574;SDS011;4325;42.520;27.448;2023-05-10T00:59:43;10.03;;;4.90;;
8574;SDS011;4325;42.520;27.448;2023-05-10T01:02:10;11.20;;;4.37;;
8574;SDS011;4325;42.520;27.448;2023-05-10T01:04:38;8.87;;;4.63;;
8574;SDS011;4325;42.520;27.448;2023-05-10T01:07:07;12.73;;;5.30;;
8574;SDS011;4325;42.520;27.448;2023-05-10T01:09:34;10.70;;;5.00;;
8574;SDS011;4325;42.520;27.448;2023-05-10T01:12:01;9.80;;;4.73;;
8574;SDS011;4325;42.520;27.448;2023-05-10T01:14:29;7.20;;;5.60;;
8574;SDS011;4325;42.520;27.448;2023-05-10T01:16:56;8.53;;;5.00;;
8574;SDS011;4325;42.520;27.448;2023-05-10T01:19:23;6.67;;;4.93;;
8574;SDS011;4325;42.520;27.448;2023-05-10T01:21:54;6.10;;;4.93;;
8574;SDS011;4325;42.520;27.448;2023-05-10T01:24:37;6.03;;;4.83;;
8574;SDS011;4325;42.520;27.448;2023-05-10T01:27:20;7.83;;;5.37;;
8574;SDS011;4325;42.520;27.448;2023-05-10T01:33:01;7.17;;;5.23;;
8574;SDS011;4325;42.520;27.448;2023-05-10T01:35:36;11.57;;;5.20;;
8574;SDS011;4325;42.520;27.448;2023-05-10T01:38:09;10.37;;;5.03;;
8574;SDS011;4325;42.520;27.448;2023-05-10T01:40:45;8.07;;;4.83;;
8574;SDS011;4325;42.520;27.448;2023-05-10T01:43:19;5.70;;;4.83;;
8574;SDS011;4325;42.520;27.448;2023-05-10T01:45:55;7.00;;;4.80;;
8574;SDS011;4325;42.520;27.448;2023-05-10T01:48:31;15.93;;;4.93;;
8574;SDS011;4325;42.520;27.448;2023-05-10T01:50:59;7.37;;;4.37;;
8574;SDS011;4325;42.520;27.448;2023-05-10T01:53:26;7.07;;;5.63;;
8574;SDS011;4325;42.520;27.448;2023-05-10T01:55:54;14.43;;;5.27;;
8574;SDS011;4325;42.520;27.448;2023-05-10T01:58:22;8.23;;;5.13;;
8574;SDS011;4325;42.520;27.448;2023-05-10T02:00:54;7.67;;;4.83;;
8574;SDS011;4325;42.520;27.448;2023-05-10T02:03:24;6.47;;;5.03;;
8574;SDS011;4325;42.520;27.448;2023-05-10T02:05:54;10.13;;;4.80;;
8574;SDS011;4325;42.520;27.448;2023-05-10T02:08:22;6.53;;;4.73;;
8574;SDS011;4325;42.520;27.448;2023-05-10T02:10:51;9.13;;;5.17;;
8574;SDS011;4325;42.520;27.448;2023-05-10T02:13:19;7.63;;;5.07;;
8574;SDS011;4325;42.520;27.448;2023-05-10T02:15:49;8.93;;;5.90;;
8574;SDS011;4325;42.520;27.448;2023-05-10T02:18:19;9.53;;;5.37;;
8574;SDS011;4325;42.520;27.448;2023-05-10T02:20:48;9.23;;;4.60;;
8574;SDS011;4325;42.520;27.448;2023-05-10T02:23:20;8.40;;;5.80;;
8574;SDS011;4325;42.520;27.448;2023-05-10T02:25:47;6.83;;;5.20;;
8574;SDS011;4325;42.520;27.448;2023-05-10T02:28:15;7.80;;;6.07;;
8574;SDS011;4325;42.520;27.448;2023-05-10T02:30:43;8.73;;;5.50;;
8574;SDS011;4325;42.520;27.448;2023-05-10T02:33:11;12.40;;;6.00;;
8574;SDS011;4325;42.520;27.448;2023-05-10T02:35:38;9.57;;;5.30;;
8574;SDS011;4325;42.520;27.448;2023-05-10T02:38:06;10.13;;;5.80;;
8574;SDS011;4325;42.520;27.448;2023-05-10T02:40:36;12.23;;;5.73;;
8574;SDS011;4325;42.520;27.448;2023-05-10T02:43:04;12.70;;;6.23;;
8574;SDS011;4325;42.520;27.448;2023-05-10T02:45:35;7.50;;;6.00;;
8574;SDS011;4325;42.520;27.448;2023-05-10T02:48:04;10.20;;;6.07;;
8574;SDS011;4325;42.520;27.448;2023-05-10T02:50:32;12.37;;;8.00;;
8574;SDS011;4325;42.520;27.448;2023-05-10T02:53:00;11.73;;;6.63;;
8574;SDS011;4325;42.520;27.448;2023-05-10T02:55:32;10.90;;;6.33;;
8574;SDS011;4325;42.520;27.448;2023-05-10T02:58:03;9.97;;;6.33;;
8574;SDS011;4325;42.520;27.448;2023-05-10T03:00:30;11.80;;;6.77;;
8574;SDS011;4325;42.520;27.448;2023-05-10T03:02:57;9.40;;;5.97;;
8574;SDS011;4325;42.520;27.448;2023-05-10T03:05:24;12.03;;;6.60;;
8574;SDS011;4325;42.520;27.448;2023-05-10T03:07:51;10.47;;;6.30;;
8574;SDS011;4325;42.520;27.448;2023-05-10T03:10:19;11.60;;;6.40;;
8574;SDS011;4325;42.520;27.448;2023-05-10T03:12:57;11.10;;;6.00;;
8574;SDS011;4325;42.520;27.448;2023-05-10T03:15:36;10.93;;;6.33;;
8574;SDS011;4325;42.520;27.448;2023-05-10T03:18:09;7.87;;;5.93;;
8574;SDS011;4325;42.520;27.448;2023-05-10T03:20:41;11.60;;;6.30;;
8574;SDS011;4325;42.520;27.448;2023-05-10T03:23:12;10.73;;;6.70;;
8574;SDS011;4325;42.520;27.448;2023-05-10T03:25:46;8.67;;;6.20;;
8574;SDS011;4325;42.520;27.448;2023-05-10T03:28:16;9.87;;;7.33;;
8574;SDS011;4325;42.520;27.448;2023-05-10T03:30:44;8.90;;;6.23;;
8574;SDS011;4325;42.520;27.448;2023-05-10T03:33:12;7.33;;;6.40;;
8574;SDS011;4325;42.520;27.448;2023-05-10T03:35:39;11.87;;;6.97;;
8574;SDS011;4325;42.520;27.448;2023-05-10T03:38:06;7.53;;;6.20;;
8574;SDS011;4325;42.520;27.448;2023-05-10T03:40:33;10.50;;;6.50;;
8574;SDS011;4325;42.520;27.448;2023-05-10T03:43:00;13.17;;;6.53;;
8574;SDS011;4325;42.520;27.448;2023-05-10T03:45:28;9.23;;;6.10;;
8574;SDS011;4325;42.520;27.448;2023-05-10T03:47:56;9.70;;;6.57;;
8574;SDS011;4325;42.520;27.448;2023-05-10T03:50:23;11.23;;;6.03;;
8574;SDS011;4325;42.520;27.448;2023-05-10T03:52:51;15.23;;;6.07;;
8574;SDS011;4325;42.520;27.448;2023-05-10T03:55:18;10.67;;;7.13;;
8574;SDS011;4325;42.520;27.448;2023-05-10T03:57:45;13.40;;;6.47;;
8574;SDS011;4325;42.520;27.448;2023-05-10T04:00:14;9.70;;;7.70;;
8574;SDS011;4325;42.520;27.448;2023-05-10T04:02:43;9.00;;;6.43;;
8574;SDS011;4325;42.520;27.448;2023-05-10T04:05:10;11.50;;;7.33;;
8574;SDS011;4325;42.520;27.448;2023-05-10T04:07:37;11.40;;;6.10;;
8574;SDS011;4325;42.520;27.448;2023-05-10T04:10:04;13.30;;;5.83;;
8574;SDS011;4325;42.520;27.448;2023-05-10T04:12:32;6.60;;;5.20;;
8574;SDS011;4325;42.520;27.448;2023-05-10T04:14:59;9.50;;;5.77;;
8574;SDS011;4325;42.520;27.448;2023-05-10T04:17:26;6.67;;;5.50;;
8574;SDS011;4325;42.520;27.448;2023-05-10T04:19:54;9.77;;;5.63;;
8574;SDS011;4325;42.520;27.448;2023-05-10T04:22:22;7.70;;;5.17;;
8574;SDS011;4325;42.520;27.448;2023-05-10T04:24:49;7.83;;;5.23;;
8574;SDS011;4325;42.520;27.448;2023-05-10T04:27:16;12.80;;;5.83;;
8574;SDS011;4325;42.520;27.448;2023-05-10T04:29:42;11.17;;;5.57;;
8574;SDS011;4325;42.520;27.448;2023-05-10T04:32:09;11.50;;;5.30;;
8574;SDS011;4325;42.520;27.448;2023-05-10T04:34:36;10.20;;;5.93;;
8574;SDS011;4325;42.520;27.448;2023-05-10T04:37:05;11.47;;;5.50;;
8574;SDS011;4325;42.520;27.448;2023-05-10T04:39:32;10.67;;;6.47;;
8574;SDS011;4325;42.520;27.448;2023-05-10T04:42:00;9.23;;;6.60;;
8574;SDS011;4325;42.520;27.448;2023-05-10T04:44:27;9.67;;;5.87;;
8574;SDS011;4325;42.520;27.448;2023-05-10T04:46:54;7.63;;;5.60;;
8574;SDS011;4325;42.520;27.448;2023-05-10T04:49:21;7.53;;;5.10;;
8574;SDS011;4325;42.520;27.448;2023-05-10T04:51:48;8.67;;;6.03;;
8574;SDS011;4325;42.520;27.448;2023-05-10T04:54:18;8.93;;;5.47;;
8574;SDS011;4325;42.520;27.448;2023-05-10T04:56:45;11.97;;;6.47;;
8574;SDS011;4325;42.520;27.448;2023-05-10T04:59:12;9.93;;;5.70;;
8574;SDS011;4325;42.520;27.448;2023-05-10T05:01:39;9.27;;;5.60;;
8574;SDS011;4325;42.520;27.448;2023-05-10T05:04:06;9.43;;;5.80;;
8574;SDS011;4325;42.520;27.448;2023-05-10T05:06:33;11.60;;;5.70;;
8574;SDS011;4325;42.520;27.448;2023-05-10T05:09:00;9.30;;;6.07;;
8574;SDS011;4325;42.520;27.448;2023-05-10T05:11:28;14.43;;;5.57;;
8574;SDS011;4325;42.520;27.448;2023-05-10T05:13:55;9.60;;;6.00;;
8574;SDS011;4325;42.520;27.448;2023-05-10T05:16:24;14.10;;;8.07;;
8574;SDS011;4325;42.520;27.448;2023-05-10T05:18:51;11.03;;;6.33;;
8574;SDS011;4325;42.520;27.448;2023-05-10T05:21:18;8.13;;;5.27;;
8574;SDS011;4325;42.520;27.448;2023-05-10T05:23:46;7.27;;;5.63;;
8574;SDS011;4325;42.520;27.448;2023-05-10T05:26:13;6.33;;;5.40;;
8574;SDS011;4325;42.520;27.448;2023-05-10T05:28:42;6.50;;;4.97;;
8574;SDS011;4325;42.520;27.448;2023-05-10T05:31:09;6.73;;;4.07;;
8574;SDS011;4325;42.520;27.448;2023-05-10T05:33:36;7.93;;;4.40;;
8574;SDS011;4325;42.520;27.448;2023-05-10T05:36:04;7.60;;;4.17;;
8574;SDS011;4325;42.520;27.448;2023-05-10T05:38:32;5.93;;;4.10;;
8574;SDS011;4325;42.520;27.448;2023-05-10T05:40:59;10.50;;;4.87;;
8574;SDS011;4325;42.520;27.448;2023-05-10T05:43:25;7.03;;;4.03;;
8574;SDS011;4325;42.520;27.448;2023-05-10T05:45:54;5.13;;;3.90;;
8574;SDS011;4325;42.520;27.448;2023-05-10T05:48:22;6.20;;;4.40;;
8574;SDS011;4325;42.520;27.448;2023-05-10T05:50:49;6.70;;;4.50;;
8574;SDS011;4325;42.520;27.448;2023-05-10T05:53:16;5.77;;;3.83;;
8574;SDS011;4325;42.520;27.448;2023-05-10T05:55:50;8.33;;;4.00;;
8574;SDS011;4325;42.520;27.448;2023-05-10T05:58:18;6.20;;;4.20;;
8574;SDS011;4325;42.520;27.448;2023-05-10T06:00:45;8.77;;;3.67;;
8574;SDS011;4325;42.520;27.448;2023-05-10T06:03:13;5.43;;;3.43;;
8574;SDS011;4325;42.520;27.448;2023-05-10T06:05:40;5.53;;;3.73;;
8574;SDS011;4325;42.520;27.448;2023-05-10T06:08:07;8.13;;;4.10;;
8574;SDS011;4325;42.520;27.448;2023-05-10T06:10:34;4.73;;;3.03;;
8574;SDS011;4325;42.520;27.448;2023-05-10T06:13:01;5.37;;;3.53;;
8574;SDS011;4325;42.520;27.448;2023-05-10T06:15:28;8.63;;;3.63;;
8574;SDS011;4325;42.520;27.448;2023-05-10T06:17:55;4.40;;;3.20;;
8574;SDS011;4325;42.520;27.448;2023-05-10T06:20:24;6.00;;;3.30;;
8574;SDS011;4325;42.520;27.448;2023-05-10T06:22:51;8.27;;;2.93;;
8574;SDS011;4325;42.520;27.448;2023-05-10T06:25:18;5.80;;;3.07;;
8574;SDS011;4325;42.520;27.448;2023-05-10T06:27:45;4.40;;;2.47;;
8574;SDS011;4325;42.520;27.448;2023-05-10T06:30:12;3.93;;;2.87;;
8574;SDS011;4325;42.520;27.448;2023-05-10T06:32:40;4.13;;;2.80;;
8574;SDS011;4325;42.520;27.448;2023-05-10T06:35:09;15.63;;;4.00;;
8574;SDS011;4325;42.520;27.448;2023-05-10T06:37:37;7.47;;;4.10;;
8574;SDS011;4325;42.520;27.448;2023-05-10T06:40:05;8.23;;;3.17;;
8574;SDS011;4325;42.520;27.448;2023-05-10T06:42:33;7.60;;;4.87;;
8574;SDS011;4325;42.520;27.448;2023-05-10T06:44:59;3.97;;;3.03;;
8574;SDS011;4325;42.520;27.448;2023-05-10T06:47:26;10.13;;;3.40;;
8574;SDS011;4325;42.520;27.448;2023-05-10T06:49:53;4.70;;;3.70;;
8574;SDS011;4325;42.520;27.448;2023-05-10T06:52:20;4.90;;;2.93;;
8574;SDS011;4325;42.520;27.448;2023-05-10T06:54:49;7.23;;;3.10;;
8574;SDS011;4325;42.520;27.448;2023-05-10T06:57:16;6.47;;;2.70;;
8574;SDS011;4325;42.520;27.448;2023-05-10T06:59:44;3.70;;;2.70;;
8574;SDS011;4325;42.520;27.448;2023-05-10T07:02:11;9.70;;;3.17;;
8574;SDS011;4325;42.520;27.448;2023-05-10T07:04:40;5.37;;;2.73;;
8574;SDS011;4325;42.520;27.448;2023-05-10T07:07:06;5.87;;;2.70;;
8574;SDS011;4325;42.520;27.448;2023-05-10T07:09:36;4.10;;;3.00;;
8574;SDS011;4325;42.520;27.448;2023-05-10T07:12:04;6.83;;;3.00;;
8574;SDS011;4325;42.520;27.448;2023-05-10T07:14:31;6.17;;;2.67;;
8574;SDS011;4325;42.520;27.448;2023-05-10T07:16:58;5.13;;;3.17;;
8574;SDS011;4325;42.520;27.448;2023-05-10T07:19:25;10.73;;;3.30;;
8574;SDS011;4325;42.520;27.448;2023-05-10T07:21:52;7.60;;;2.80;;
8574;SDS011;4325;42.520;27.448;2023-05-10T07:24:18;5.80;;;2.30;;
8574;SDS011;4325;42.520;27.448;2023-05-10T07:26:45;5.10;;;2.57;;
8574;SDS011;4325;42.520;27.448;2023-05-10T07:29:13;8.17;;;2.80;;
8574;SDS011;4325;42.520;27.448;2023-05-10T07:31:41;7.97;;;2.50;;
8574;SDS011;4325;42.520;27.448;2023-05-10T07:34:08;5.43;;;2.43;;
8574;SDS011;4325;42.520;27.448;2023-05-10T07:36:35;4.83;;;2.57;;
8574;SDS011;4325;42.520;27.448;2023-05-10T07:39:02;7.60;;;3.10;;
8574;SDS011;4325;42.520;27.448;2023-05-10T07:41:29;3.90;;;2.60;;
8574;SDS011;4325;42.520;27.448;2023-05-10T07:43:56;5.27;;;2.80;;
8574;SDS011;4325;42.520;27.448;2023-05-10T07:46:24;3.80;;;2.77;;
8574;SDS011;4325;42.520;27.448;2023-05-10T07:48:51;8.70;;;3.37;;
8574;SDS011;4325;42.520;27.448;2023-05-10T07:51:18;9.70;;;3.10;;
8574;SDS011;4325;42.520;27.448;2023-05-10T07:53:45;3.20;;;2.80;;
8574;SDS011;4325;42.520;27.448;2023-05-10T07:56:22;4.90;;;3.07;;
8574;SDS011;4325;42.520;27.448;2023-05-10T07:58:52;8.80;;;3.03;;
8574;SDS011;4325;42.520;27.448;2023-05-10T08:01:19;11.73;;;3.47;;
8574;SDS011;4325;42.520;27.448;2023-05-10T08:03:47;2.93;;;2.73;;
8574;SDS011;4325;42.520;27.448;2023-05-10T08:06:16;4.53;;;2.83;;
8574;SDS011;4325;42.520;27.448;2023-05-10T08:08:45;6.17;;;3.07;;
8574;SDS011;4325;42.520;27.448;2023-05-10T08:11:14;5.93;;;3.20;;
8574;SDS011;4325;42.520;27.448;2023-05-10T08:13:41;3.60;;;2.83;;
8574;SDS011;4325;42.520;27.448;2023-05-10T08:16:08;3.37;;;2.43;;
8574;SDS011;4325;42.520;27.448;2023-05-10T08:18:35;5.90;;;2.40;;
8574;SDS011;4325;42.520;27.448;2023-05-10T08:21:03;4.53;;;2.27;;
8574;SDS011;4325;42.520;27.448;2023-05-10T08:23:30;5.60;;;2.60;;
8574;SDS011;4325;42.520;27.448;2023-05-10T08:25:57;8.33;;;2.70;;
8574;SDS011;4325;42.520;27.448;2023-05-10T08:28:24;5.20;;;2.67;;
8574;SDS011;4325;42.520;27.448;2023-05-10T08:30:51;4.17;;;2.70;;
8574;SDS011;4325;42.520;27.448;2023-05-10T08:33:18;3.03;;;2.63;;
8574;SDS011;4325;42.520;27.448;2023-05-10T08:35:45;7.67;;;3.40;;
8574;SDS011;4325;42.520;27.448;2023-05-10T08:38:13;4.23;;;2.50;;
8574;SDS011;4325;42.520;27.448;2023-05-10T08:40:41;5.03;;;2.33;;
8574;SDS011;4325;42.520;27.448;2023-05-10T08:43:11;4.33;;;2.43;;
8574;SDS011;4325;42.520;27.448;2023-05-10T08:45:40;5.10;;;2.67;;
8574;SDS011;4325;42.520;27.448;2023-05-10T08:48:09;3.17;;;2.70;;
8574;SDS011;4325;42.520;27.448;2023-05-10T08:50:37;5.23;;;2.80;;
8574;SDS011;4325;42.520;27.448;2023-05-10T08:53:06;4.33;;;2.83;;
8574;SDS011;4325;42.520;27.448;2023-05-10T08:55:38;7.07;;;2.60;;
8574;SDS011;4325;42.520;27.448;2023-05-10T08:58:07;5.90;;;2.93;;
8574;SDS011;4325;42.520;27.448;2023-05-10T09:00:35;5.60;;;3.13;;
8574;SDS011;4325;42.520;27.448;2023-05-10T09:03:03;5.07;;;2.63;;
8574;SDS011;4325;42.520;27.448;2023-05-10T09:05:30;4.23;;;2.43;;
8574;SDS011;4325;42.520;27.448;2023-05-10T09:07:57;8.47;;;3.07;;
8574;SDS011;4325;42.520;27.448;2023-05-10T09:10:25;3.43;;;2.50;;
8574;SDS011;4325;42.520;27.448;2023-05-10T09:12:55;3.53;;;2.50;;
8574;SDS011;4325;42.520;27.448;2023-05-10T09:15:23;6.70;;;2.77;;
8574;SDS011;4325;42.520;27.448;2023-05-10T09:17:50;5.65;;;2.70;;
8574;SDS011;4325;42.520;27.448;2023-05-10T09:20:17;9.52;;;3.00;;
8574;SDS011;4325;42.520;27.448;2023-05-10T09:22:45;3.22;;;2.60;;
8574;SDS011;4325;42.520;27.448;2023-05-10T09:25:13;5.43;;;2.55;;
8574;SDS011;4325;42.520;27.448;2023-05-10T09:27:44;4.90;;;2.80;;
8574;SDS011;4325;42.520;27.448;2023-05-10T09:30:16;8.50;;;2.90;;
8574;SDS011;4325;42.520;27.448;2023-05-10T09:32:44;4.85;;;2.30;;
8574;SDS011;4325;42.520;27.448;2023-05-10T09:35:13;4.47;;;2.33;;
8574;SDS011;4325;42.520;27.448;2023-05-10T09:37:42;6.00;;;2.37;;
8574;SDS011;4325;42.520;27.448;2023-05-10T09:40:11;8.97;;;2.70;;
8574;SDS011;4325;42.520;27.448;2023-05-10T09:42:39;7.07;;;2.60;;
8574;SDS011;4325;42.520;27.448;2023-05-10T09:45:07;4.07;;;2.87;;
8574;SDS011;4325;42.520;27.448;2023-05-10T09:47:36;5.97;;;2.40;;
8574;SDS011;4325;42.520;27.448;2023-05-10T09:50:03;4.37;;;2.87;;
8574;SDS011;4325;42.520;27.448;2023-05-10T09:52:31;4.67;;;2.73;;
8574;SDS011;4325;42.520;27.448;2023-05-10T09:55:13;4.83;;;2.90;;
8574;SDS011;4325;42.520;27.448;2023-05-10T09:57:40;3.17;;;2.60;;
8574;SDS011;4325;42.520;27.448;2023-05-10T10:00:07;5.68;;;2.22;;
8574;SDS011;4325;42.520;27.448;2023-05-10T10:02:37;5.35;;;2.45;;
8574;SDS011;4325;42.520;27.448;2023-05-10T10:05:06;3.47;;;2.40;;
8574;SDS011;4325;42.520;27.448;2023-05-10T10:07:33;5.47;;;2.63;;
8574;SDS011;4325;42.520;27.448;2023-05-10T10:10:00;7.00;;;2.67;;
8574;SDS011;4325;42.520;27.448;2023-05-10T10:12:29;5.17;;;2.70;;
8574;SDS011;4325;42.520;27.448;2023-05-10T10:14:57;2.97;;;2.27;;
8574;SDS011;4325;42.520;27.448;2023-05-10T10:17:26;5.17;;;2.60;;
8574;SDS011;4325;42.520;27.448;2023-05-10T10:19:56;6.63;;;2.70;;
8574;SDS011;4325;42.520;27.448;2023-05-10T10:22:23;6.43;;;2.63;;
8574;SDS011;4325;42.520;27.448;2023-05-10T10:24:50;10.97;;;2.30;;
8574;SDS011;4325;42.520;27.448;2023-05-10T10:27:20;6.70;;;2.50;;
8574;SDS011;4325;42.520;27.448;2023-05-10T10:29:59;6.82;;;2.30;;
8574;SDS011;4325;42.520;27.448;2023-05-10T10:32:33;4.82;;;3.03;;
8574;SDS011;4325;42.520;27.448;2023-05-10T10:35:14;6.57;;;2.55;;
8574;SDS011;4325;42.520;27.448;2023-05-10T10:37:45;7.67;;;3.10;;
8574;SDS011;4325;42.520;27.448;2023-05-10T10:42:58;4.53;;;2.63;;
8574;SDS011;4325;42.520;27.448;2023-05-10T10:45:56;3.57;;;2.73;;
8574;SDS011;4325;42.520;27.448;2023-05-10T10:48:36;4.87;;;2.70;;
8574;SDS011;4325;42.520;27.448;2023-05-10T10:51:04;9.80;;;2.63;;
8574;SDS011;4325;42.520;27.448;2023-05-10T10:53:31;3.70;;;2.50;;
8574;SDS011;4325;42.520;27.448;2023-05-10T10:56:05;4.50;;;2.60;;
8574;SDS011;4325;42.520;27.448;2023-05-10T10:58:34;7.23;;;3.17;;
8574;SDS011;4325;42.520;27.448;2023-05-10T11:01:09;9.87;;;2.70;;
8574;SDS011;4325;42.520;27.448;2023-05-10T11:03:37;3.73;;;1.97;;
8574;SDS011;4325;42.520;27.448;2023-05-10T11:06:05;3.80;;;2.43;;
8574;SDS011;4325;42.520;27.448;2023-05-10T11:08:34;4.17;;;2.30;;
8574;SDS011;4325;42.520;27.448;2023-05-10T11:11:10;7.60;;;2.13;;
8574;SDS011;4325;42.520;27.448;2023-05-10T11:13:41;8.20;;;2.53;;
8574;SDS011;4325;42.520;27.448;2023-05-10T11:16:13;4.67;;;2.27;;
8574;SDS011;4325;42.520;27.448;2023-05-10T11:18:51;4.60;;;2.30;;
8574;SDS011;4325;42.520;27.448;2023-05-10T11:21:21;6.70;;;2.80;;
8574;SDS011;4325;42.520;27.448;2023-05-10T11:23:49;5.67;;;2.63;;
8574;SDS011;4325;42.520;27.448;2023-05-10T11:26:17;3.30;;;1.97;;
8574;SDS011;4325;42.520;27.448;2023-05-10T11:28:48;3.97;;;1.90;;
8574;SDS011;4325;42.520;27.448;2023-05-10T11:31:15;8.20;;;2.20;;
8574;SDS011;4325;42.520;27.448;2023-05-10T11:33:43;2.80;;;2.00;;
8574;SDS011;4325;42.520;27.448;2023-05-10T11:36:11;4.70;;;2.40;;
8574;SDS011;4325;42.520;27.448;2023-05-10T11:38:40;6.80;;;2.73;;
8574;SDS011;4325;42.520;27.448;2023-05-10T11:41:07;4.13;;;2.37;;
8574;SDS011;4325;42.520;27.448;2023-05-10T11:43:35;2.43;;;2.23;;
8574;SDS011;4325;42.520;27.448;2023-05-10T11:46:03;9.00;;;2.50;;
8574;SDS011;4325;42.520;27.448;2023-05-10T11:48:31;4.97;;;2.73;;
8574;SDS011;4325;42.520;27.448;2023-05-10T11:50:58;3.80;;;2.30;;
8574;SDS011;4325;42.520;27.448;2023-05-10T11:53:25;2.43;;;2.20;;
8574;SDS011;4325;42.520;27.448;2023-05-10T11:55:54;7.50;;;2.70;;
8574;SDS011;4325;42.520;27.448;2023-05-10T11:58:20;5.20;;;2.40;;
8574;SDS011;4325;42.520;27.448;2023-05-10T12:00:48;9.37;;;2.57;;
8574;SDS011;4325;42.520;27.448;2023-05-10T12:03:16;3.47;;;3.10;;
8574;SDS011;4325;42.520;27.448;2023-05-10T12:05:43;9.07;;;2.80;;
8574;SDS011;4325;42.520;27.448;2023-05-10T12:08:10;4.03;;;2.50;;
8574;SDS011;4325;42.520;27.448;2023-05-10T12:10:38;5.97;;;2.73;;
8574;SDS011;4325;42.520;27.448;2023-05-10T12:13:06;3.30;;;2.47;;
8574;SDS011;4325;42.520;27.448;2023-05-10T12:15:38;3.17;;;2.53;;
8574;SDS011;4325;42.520;27.448;2023-05-10T12:18:05;3.20;;;2.70;;
8574;SDS011;4325;42.520;27.448;2023-05-10T12:20:33;7.43;;;2.63;;
8574;SDS011;4325;42.520;27.448;2023-05-10T12:23:00;4.27;;;2.53;;
8574;SDS011;4325;42.520;27.448;2023-05-10T12:25:29;3.37;;;2.40;;
8574;SDS011;4325;42.520;27.448;2023-05-10T12:27:58;8.07;;;2.80;;
8574;SDS011;4325;42.520;27.448;2023-05-10T12:30:28;4.43;;;3.20;;
8574;SDS011;4325;42.520;27.448;2023-05-10T12:32:59;6.33;;;2.80;;
8574;SDS011;4325;42.520;27.448;2023-05-10T12:35:29;6.60;;;2.90;;
8574;SDS011;4325;42.520;27.448;2023-05-10T12:37:57;5.40;;;3.40;;
8574;SDS011;4325;42.520;27.448;2023-05-10T12:40:24;3.23;;;2.37;;
8574;SDS011;4325;42.520;27.448;2023-05-10T12:42:51;3.37;;;2.40;;
8574;SDS011;4325;42.520;27.448;2023-05-10T12:45:18;8.77;;;2.63;;
8574;SDS011;4325;42.520;27.448;2023-05-10T12:47:47;3.83;;;2.90;;
8574;SDS011;4325;42.520;27.448;2023-05-10T12:50:14;4.33;;;2.90;;
8574;SDS011;4325;42.520;27.448;2023-05-10T12:52:40;4.27;;;2.60;;
8574;SDS011;4325;42.520;27.448;2023-05-10T12:55:07;5.17;;;2.60;;
8574;SDS011;4325;42.520;27.448;2023-05-10T12:57:35;4.33;;;2.50;;
8574;SDS011;4325;42.520;27.448;2023-05-10T13:00:02;7.33;;;3.03;;
8574;SDS011;4325;42.520;27.448;2023-05-10T13:02:30;5.20;;;2.73;;
8574;SDS011;4325;42.520;27.448;2023-05-10T13:04:58;7.10;;;3.03;;
8574;SDS011;4325;42.520;27.448;2023-05-10T13:07:26;6.27;;;3.00;;
8574;SDS011;4325;42.520;27.448;2023-05-10T13:09:53;5.13;;;2.70;;
8574;SDS011;4325;42.520;27.448;2023-05-10T13:12:20;4.37;;;2.60;;
8574;SDS011;4325;42.520;27.448;2023-05-10T13:14:46;3.27;;;2.60;;
8574;SDS011;4325;42.520;27.448;2023-05-10T13:17:13;3.77;;;2.80;;
8574;SDS011;4325;42.520;27.448;2023-05-10T13:19:40;2.90;;;2.50;;
8574;SDS011;4325;42.520;27.448;2023-05-10T13:22:08;3.97;;;2.73;;
8574;SDS011;4325;42.520;27.448;2023-05-10T13:24:35;4.77;;;4.27;;
8574;SDS011;4325;42.520;27.448;2023-05-10T13:27:02;6.77;;;4.53;;
8574;SDS011;4325;42.520;27.448;2023-05-10T13:29:29;6.43;;;2.90;;
8574;SDS011;4325;42.520;27.448;2023-05-10T13:31:57;4.73;;;2.87;;
8574;SDS011;4325;42.520;27.448;2023-05-10T13:34:23;8.13;;;2.90;;
8574;SDS011;4325;42.520;27.448;2023-05-10T13:36:50;5.00;;;2.67;;
8574;SDS011;4325;42.520;27.448;2023-05-10T13:39:20;4.50;;;3.30;;
8574;SDS011;4325;42.520;27.448;2023-05-10T13:41:47;3.83;;;2.90;;
8574;SDS011;4325;42.520;27.448;2023-05-10T13:44:14;7.77;;;2.97;;
8574;SDS011;4325;42.520;27.448;2023-05-10T13:46:41;5.80;;;2.80;;
8574;SDS011;4325;42.520;27.448;2023-05-10T13:49:08;6.20;;;2.80;;
8574;SDS011;4325;42.520;27.448;2023-05-10T13:51:35;6.97;;;3.10;;
8574;SDS011;4325;42.520;27.448;2023-05-10T13:54:02;8.50;;;3.00;;
8574;SDS011;4325;42.520;27.448;2023-05-10T13:56:31;7.70;;;3.67;;
8574;SDS011;4325;42.520;27.448;2023-05-10T13:58:58;4.87;;;2.87;;
8574;SDS011;4325;42.520;27.448;2023-05-10T14:01:25;7.17;;;3.10;;
8574;SDS011;4325;42.520;27.448;2023-05-10T14:03:52;10.70;;;3.80;;
8574;SDS011;4325;42.520;27.448;2023-05-10T14:06:19;9.10;;;3.37;;
8574;SDS011;4325;42.520;27.448;2023-05-10T14:08:47;6.77;;;3.20;;
8574;SDS011;4325;42.520;27.448;2023-05-10T14:11:14;8.17;;;3.07;;
8574;SDS011;4325;42.520;27.448;2023-05-10T14:13:42;8.07;;;3.30;;
8574;SDS011;4325;42.520;27.448;2023-05-10T14:16:09;4.80;;;3.00;;
8574;SDS011;4325;42.520;27.448;2023-05-10T14:18:36;9.90;;;2.90;;
8574;SDS011;4325;42.520;27.448;2023-05-10T14:21:03;7.57;;;3.23;;
8574;SDS011;4325;42.520;27.448;2023-05-10T14:23:30;4.97;;;3.10;;
8574;SDS011;4325;42.520;27.448;2023-05-10T14:25:57;8.53;;;2.70;;
8574;SDS011;4325;42.520;27.448;2023-05-10T14:28:24;4.90;;;3.03;;
8574;SDS011;4325;42.520;27.448;2023-05-10T14:30:52;10.33;;;2.90;;
8574;SDS011;4325;42.520;27.448;2023-05-10T14:33:19;7.10;;;2.60;;
8574;SDS011;4325;42.520;27.448;2023-05-10T14:35:47;11.77;;;3.70;;
8574;SDS011;4325;42.520;27.448;2023-05-10T14:38:14;8.80;;;3.00;;
8574;SDS011;4325;42.520;27.448;2023-05-10T14:40:41;4.90;;;2.83;;
8574;SDS011;4325;42.520;27.448;2023-05-10T14:43:08;5.57;;;3.40;;
8574;SDS011;4325;42.520;27.448;2023-05-10T14:45:35;5.07;;;3.20;;
8574;SDS011;4325;42.520;27.448;2023-05-10T14:48:04;9.43;;;3.30;;
8574;SDS011;4325;42.520;27.448;2023-05-10T14:50:31;8.13;;;3.73;;
8574;SDS011;4325;42.520;27.448;2023-05-10T14:52:58;7.70;;;2.83;;
8574;SDS011;4325;42.520;27.448;2023-05-10T14:55:25;7.37;;;2.57;;
8574;SDS011;4325;42.520;27.448;2023-05-10T14:57:52;6.67;;;3.77;;
8574;SDS011;4325;42.520;27.448;2023-05-10T15:00:19;8.47;;;2.90;;
8574;SDS011;4325;42.520;27.448;2023-05-10T15:02:47;5.03;;;3.23;;
8574;SDS011;4325;42.520;27.448;2023-05-10T15:05:16;6.47;;;3.07;;
8574;SDS011;4325;42.520;27.448;2023-05-10T15:07:42;5.30;;;3.37;;
8574;SDS011;4325;42.520;27.448;2023-05-10T15:10:10;4.83;;;3.20;;
8574;SDS011;4325;42.520;27.448;2023-05-10T15:12:37;8.40;;;3.77;;